Alma, New York
Current Conditions -  °F | °C
As of 11:56 AM on Saturday 27 Dec 2014 (Local Time) from KELZ Reporting Station
Clear Clear  
Wind Chill: 41°   Ceiling: Unl
Heat Index: 47°   Visibility: 10mi
Dew Point: 35°   Wind: 14mph
Humidity: 63%   Direction: 230°SW
Pressure: 30.12"   Gusts: 20mph
Location:  42.01°N, 78.06°W
Report Text: KELZ 271656Z AUTO 23012G17KT 10SM CLR 08/02 A3012 RMK AO2 SLP211 T00830017
Loading
Personal Weather Stations






























Interactive Weather Map New forecast layout! Learn more

10-Day Weather Forecast

Advertisements
Track Severe Weather on mobile